createdAt,value
2022-12-25T00:02:03.501Z,100165.78
2022-12-25T00:06:07.609Z,100166.63
2022-12-25T00:10:12.624Z,100167.47
2022-12-25T00:14:15.542Z,100174.47
2022-12-25T00:18:18.433Z,100167.47
2022-12-25T00:22:21.440Z,100177.13
2022-12-25T00:26:27.107Z,100165.69
2022-12-25T00:30:30.062Z,100172.69
2022-12-25T00:34:33.222Z,100180.56
2022-12-25T00:38:38.161Z,100185.84
2022-12-25T00:42:43.474Z,100184.97
2022-12-25T00:46:46.392Z,100186.72
2022-12-25T00:50:49.322Z,100197.25
2022-12-25T00:54:52.230Z,100192.84
2022-12-25T00:58:57.040Z,100199.00
2022-12-25T01:03:00.084Z,100199.88
2022-12-25T01:07:03.088Z,100200.75
2022-12-25T01:11:08.743Z,100207.81
2022-12-25T01:15:14.435Z,100209.53
2022-12-25T01:19:17.340Z,100204.28
2022-12-25T01:23:20.289Z,100206.91
2022-12-25T01:27:23.567Z,100199.84
2022-12-25T01:31:27.898Z,100207.75
2022-12-25T01:35:31.662Z,100203.34
2022-12-25T01:39:35.091Z,100192.81
2022-12-25T01:43:59.399Z,100193.69
2022-12-25T01:48:07.601Z,100199.88
2022-12-25T01:52:17.535Z,100205.06
2022-12-25T01:56:25.776Z,100203.28
2022-12-25T02:00:28.951Z,100220.78
2022-12-25T02:04:39.606Z,100206.72
2022-12-25T02:08:42.919Z,100218.09
2022-12-25T02:12:46.801Z,100225.13
2022-12-25T02:16:59.029Z,100223.38
2022-12-25T02:21:19.049Z,100219.81
2022-12-25T02:25:37.939Z,100223.28
2022-12-25T02:29:50.587Z,100219.63
2022-12-25T02:34:05.816Z,100230.91
2022-12-25T02:38:17.113Z,100232.59
2022-12-25T02:42:48.556Z,100231.66
2022-12-25T02:47:11.709Z,100228.09
2022-12-25T02:51:35.050Z,100228.09
2022-12-25T02:56:00.814Z,100238.56
2022-12-25T03:00:23.464Z,100237.63
2022-12-25T03:04:47.044Z,100235.78
2022-12-25T03:08:53.320Z,100241.00
2022-12-25T03:12:59.187Z,100238.34
2022-12-25T03:17:02.460Z,100234.75
2022-12-25T03:21:25.053Z,100232.03
2022-12-25T03:25:47.487Z,100232.84
2022-12-25T03:30:16.323Z,100248.50
2022-12-25T03:34:50.345Z,100241.47
2022-12-25T03:39:21.468Z,100240.56
2022-12-25T03:43:51.233Z,100236.13
2022-12-25T03:48:14.122Z,100245.63
2022-12-25T03:52:37.523Z,100250.84
2022-12-25T03:57:00.679Z,100256.97
2022-12-25T04:01:20.993Z,100255.16
2022-12-25T04:05:41.743Z,100246.28
2022-12-25T04:10:02.188Z,100249.59
2022-12-25T04:14:24.107Z,100252.88
2022-12-25T04:18:44.141Z,100239.63
2022-12-25T04:23:04.970Z,100248.34
2022-12-25T04:27:25.230Z,100249.09
2022-12-25T04:31:46.720Z,100249.94
2022-12-25T04:36:07.678Z,100258.78
2022-12-25T04:40:12.371Z,100252.69
2022-12-25T04:44:15.332Z,100256.22
2022-12-25T04:48:20.031Z,100253.59
2022-12-25T04:52:22.948Z,100260.63
2022-12-25T04:56:25.975Z,100268.44
2022-12-25T05:00:28.872Z,100258.78
2022-12-25T05:04:33.440Z,100258.66
2022-12-25T05:08:37.067Z,100264.75
2022-12-25T05:12:39.970Z,100266.47
2022-12-25T05:16:42.939Z,100255.97
2022-12-25T05:20:54.503Z,100255.09
2022-12-25T05:24:57.459Z,100252.47
2022-12-25T05:29:00.909Z,100243.72
2022-12-25T05:33:04.030Z,100253.34
2022-12-25T05:37:08.391Z,100256.81
2022-12-25T05:41:11.462Z,100257.66
2022-12-25T05:45:14.682Z,100255.03
2022-12-25T05:49:17.778Z,100248.88
2022-12-25T05:53:22.121Z,100250.59
2022-12-25T05:57:25.066Z,100255.88
2022-12-25T06:01:29.280Z,100265.47
2022-12-25T06:05:32.994Z,100255.84
2022-12-25T06:09:37.221Z,100266.34
2022-12-25T06:13:40.456Z,100281.22
2022-12-25T06:17:43.466Z,100288.91
2022-12-25T06:21:46.387Z,100301.75
2022-12-25T06:25:50.935Z,100289.38
2022-12-25T06:29:54.214Z,100291.13
2022-12-25T06:33:57.253Z,100299.00
2022-12-25T06:38:00.358Z,100296.38
2022-12-25T06:42:05.021Z,100294.66
2022-12-25T06:46:10.778Z,100296.22
2022-12-25T06:50:13.791Z,100311.03
2022-12-25T06:54:16.831Z,100327.44
2022-12-25T06:58:21.357Z,100332.53
2022-12-25T07:02:25.654Z,100342.13
2022-12-25T07:06:28.784Z,100347.41
2022-12-25T07:10:31.762Z,100342.06
2022-12-25T07:14:36.396Z,100351.44
2022-12-25T07:18:39.419Z,100365.22
2022-12-25T07:22:42.299Z,100365.88
2022-12-25T07:26:45.186Z,100372.88
2022-12-25T07:30:49.625Z,100378.09
2022-12-25T07:34:52.577Z,100382.59
2022-12-25T07:38:55.675Z,100387.88
2022-12-25T07:42:58.793Z,100380.88
2022-12-25T07:47:03.172Z,100377.34
2022-12-25T07:51:08.625Z,100366.66
2022-12-25T07:55:11.706Z,100369.31
2022-12-25T07:59:15.196Z,100363.25
2022-12-25T08:03:19.648Z,100362.38
2022-12-25T08:07:23.078Z,100358.94
2022-12-25T08:11:26.030Z,100362.47
2022-12-25T08:15:29.184Z,100364.25
2022-12-25T08:19:33.705Z,100369.31
2022-12-25T08:23:38.789Z,100371.03
2022-12-25T08:27:41.708Z,100378.94
2022-12-25T08:31:46.668Z,100379.72
2022-12-25T08:35:51.184Z,100382.34
2022-12-25T08:39:54.093Z,100384.97
2022-12-25T08:43:57.084Z,100379.81
2022-12-25T08:48:00.008Z,100387.66
2022-12-25T08:52:04.448Z,100389.44
2022-12-25T08:56:08.075Z,100393.91
2022-12-25T09:00:12.056Z,100383.50
2022-12-25T09:04:15.429Z,100387.91
2022-12-25T09:08:20.239Z,100392.44
2022-12-25T09:12:23.177Z,100382.00
2022-12-25T09:16:26.129Z,100383.91
2022-12-25T09:20:29.572Z,100377.00
2022-12-25T09:24:33.964Z,100368.34
2022-12-25T09:28:36.958Z,100368.34
2022-12-25T09:32:40.500Z,100373.69
2022-12-25T09:36:43.432Z,100368.50
2022-12-25T09:40:47.863Z,100379.13
2022-12-25T09:44:56.299Z,100376.59
2022-12-25T09:49:05.797Z,100367.03
2022-12-25T09:53:14.565Z,100378.47
2022-12-25T09:57:18.978Z,100365.53
2022-12-25T10:01:31.012Z,100370.97
2022-12-25T10:05:59.928Z,100372.94
2022-12-25T10:10:17.639Z,100371.34
2022-12-25T10:14:31.367Z,100361.91
2022-12-25T10:18:51.889Z,100364.69
2022-12-25T10:23:00.745Z,100357.91
2022-12-25T10:27:09.068Z,100350.16
2022-12-25T10:31:20.236Z,100349.44
2022-12-25T10:35:25.301Z,100350.44
2022-12-25T10:39:28.633Z,100346.19
2022-12-25T10:43:43.388Z,100342.88
2022-12-25T10:47:54.971Z,100334.19
2022-12-25T10:52:03.901Z,100332.56
2022-12-25T10:56:08.051Z,100330.03
2022-12-25T11:00:21.739Z,100325.78
2022-12-25T11:04:29.475Z,100322.44
2022-12-25T11:08:34.824Z,100322.47
2022-12-25T11:12:43.045Z,100315.56
2022-12-25T11:16:46.017Z,100300.63
2022-12-25T11:20:56.124Z,100300.72
2022-12-25T11:25:15.903Z,100299.00
2022-12-25T11:29:30.980Z,100285.88
2022-12-25T11:33:42.517Z,100291.19
2022-12-25T11:37:49.712Z,100281.63
2022-12-25T11:41:57.628Z,100280.81
2022-12-25T11:46:07.968Z,100276.44
2022-12-25T11:50:20.349Z,100261.59
2022-12-25T11:54:31.136Z,100261.66
2022-12-25T11:58:38.910Z,100260.06
2022-12-25T12:02:46.830Z,100258.31
2022-12-25T12:06:55.729Z,100254.81
2022-12-25T12:11:19.116Z,100252.25
2022-12-25T12:15:29.817Z,100240.91
2022-12-25T12:19:34.689Z,100236.56
2022-12-25T12:23:49.819Z,100225.25
2022-12-25T12:28:02.828Z,100222.66
2022-12-25T12:32:29.099Z,100227.13
2022-12-25T12:36:36.763Z,100228.94
2022-12-25T12:40:43.793Z,100233.41
2022-12-25T12:44:51.000Z,100229.91
2022-12-25T12:48:55.827Z,100225.53
2022-12-25T12:52:59.482Z,100225.59
2022-12-25T12:57:04.564Z,100222.06
2022-12-25T13:01:20.140Z,100230.81
2022-12-25T13:05:35.584Z,100216.75
2022-12-25T13:09:55.534Z,100215.91
2022-12-25T13:14:02.648Z,100205.38
2022-12-25T13:18:11.041Z,100193.97
2022-12-25T13:22:24.364Z,100182.53
2022-12-25T13:26:28.509Z,100170.22
2022-12-25T13:30:31.392Z,100170.19
2022-12-25T13:34:38.515Z,100185.09
2022-12-25T13:38:45.636Z,100185.94
2022-12-25T13:42:50.287Z,100176.28
2022-12-25T13:46:53.534Z,100175.38
2022-12-25T13:51:00.314Z,100170.91
2022-12-25T13:55:05.118Z,100179.63
2022-12-25T13:59:17.647Z,100167.28
2022-12-25T14:03:25.669Z,100173.38
2022-12-25T14:07:29.989Z,100185.63
2022-12-25T14:11:33.722Z,100184.72
2022-12-25T14:15:37.899Z,100200.44
2022-12-25T14:19:41.032Z,100191.66
2022-12-25T14:23:47.191Z,100191.56
2022-12-25T14:27:51.784Z,100191.50
2022-12-25T14:31:56.297Z,100189.69
2022-12-25T14:36:00.344Z,100187.88
2022-12-25T14:40:22.114Z,100193.13
2022-12-25T14:44:37.393Z,100193.03
2022-12-25T14:48:40.308Z,100190.34
2022-12-25T14:52:45.393Z,100178.88
2022-12-25T14:56:51.319Z,100168.31
2022-12-25T15:00:57.281Z,100175.31
2022-12-25T15:05:00.338Z,100174.34
2022-12-25T15:09:06.573Z,100173.41
2022-12-25T15:13:13.268Z,100170.72
2022-12-25T15:17:26.328Z,100161.03
2022-12-25T15:21:31.721Z,100161.88
2022-12-25T15:25:34.643Z,100159.28
2022-12-25T15:30:08.480Z,100157.50
2022-12-25T15:34:04.552Z,100146.84
2022-12-25T15:38:07.816Z,100153.75
2022-12-25T15:42:13.635Z,100137.09
2022-12-25T15:46:18.196Z,100114.25
2022-12-25T15:50:22.056Z,100132.50
2022-12-25T15:54:24.996Z,100134.16
2022-12-25T15:58:27.918Z,100120.09
2022-12-25T16:02:32.339Z,100111.19
2022-12-25T16:06:35.594Z,100121.53
2022-12-25T16:10:40.505Z,100138.84
2022-12-25T16:14:44.140Z,100143.91
2022-12-25T16:18:48.410Z,100146.38
2022-12-25T16:22:51.635Z,100150.63
2022-12-25T16:26:54.533Z,100146.19
2022-12-25T16:30:57.488Z,100137.28
2022-12-25T16:35:02.051Z,100136.31
2022-12-25T16:39:05.589Z,100122.13
2022-12-25T16:43:08.632Z,100105.41
2022-12-25T16:47:11.551Z,100092.09
2022-12-25T16:51:17.993Z,100077.25
2022-12-25T16:55:25.008Z,100065.03
2022-12-25T16:59:31.169Z,100055.38
2022-12-25T17:03:34.181Z,100081.63
2022-12-25T17:07:39.081Z,100079.88
2022-12-25T17:11:43.280Z,100075.53
2022-12-25T17:15:50.396Z,100079.84
2022-12-25T17:19:53.733Z,100074.47
2022-12-25T17:24:03.459Z,100076.16
2022-12-25T17:28:06.836Z,100068.16
2022-12-25T17:32:10.306Z,100068.91
2022-12-25T17:36:15.573Z,100054.91
2022-12-25T17:40:20.140Z,100053.09
2022-12-25T17:44:23.413Z,100051.28
2022-12-25T17:48:26.536Z,100051.19
2022-12-25T17:52:29.824Z,100057.22
2022-12-25T17:56:34.427Z,100051.03
2022-12-25T18:00:38.080Z,100045.72
2022-12-25T18:04:41.170Z,100044.78
2022-12-25T18:08:45.449Z,100044.78
2022-12-25T18:12:50.010Z,100031.66
2022-12-25T18:16:53.431Z,100019.41
2022-12-25T18:20:56.382Z,100006.34
2022-12-25T18:24:59.395Z,99997.59
2022-12-25T18:29:04.723Z,100013.28
2022-12-25T18:33:08.113Z,100001.03
2022-12-25T18:37:11.270Z,100006.22
2022-12-25T18:41:14.282Z,99996.66
2022-12-25T18:45:20.663Z,99993.13
2022-12-25T18:49:23.544Z,99992.34
2022-12-25T18:53:27.640Z,99989.75
2022-12-25T18:57:32.666Z,99970.59
2022-12-25T19:01:38.429Z,99961.91
2022-12-25T19:05:41.994Z,99961.91
2022-12-25T19:09:44.977Z,99980.25
2022-12-25T19:13:48.485Z,99975.78
2022-12-25T19:17:53.889Z,99982.66
2022-12-25T19:21:58.333Z,99977.38
2022-12-25T19:26:01.314Z,99968.59
2022-12-25T19:30:05.559Z,99964.28
2022-12-25T19:34:10.485Z,99951.16
2022-12-25T19:38:13.510Z,99937.00
2022-12-25T19:42:18.883Z,99941.31
2022-12-25T19:46:23.939Z,99947.31
2022-12-25T19:50:32.498Z,99952.38
2022-12-25T19:54:35.547Z,99945.22
2022-12-25T19:58:38.704Z,99928.59
2022-12-25T20:02:42.104Z,99929.41
2022-12-25T20:06:47.099Z,99930.25
2022-12-25T20:10:51.793Z,99940.66
2022-12-25T20:14:54.737Z,99939.75
2022-12-25T20:18:58.762Z,99939.75
2022-12-25T20:23:03.177Z,99936.28
2022-12-25T20:27:06.304Z,99937.09
2022-12-25T20:31:14.041Z,99943.16
2022-12-25T20:35:17.335Z,99943.16
2022-12-25T20:39:21.674Z,99958.88
2022-12-25T20:43:24.889Z,99958.88
2022-12-25T20:47:27.864Z,99959.78
2022-12-25T20:51:31.148Z,99956.31
2022-12-25T20:55:35.576Z,99960.69
2022-12-25T20:59:38.643Z,99955.38
2022-12-25T21:03:42.432Z,99972.78
2022-12-25T21:07:45.496Z,99976.25
2022-12-25T21:11:50.019Z,99974.56
2022-12-25T21:15:54.013Z,99973.69
2022-12-25T21:19:56.921Z,99976.31
2022-12-25T21:23:59.820Z,99971.94
2022-12-25T21:28:05.922Z,99959.66
2022-12-25T21:32:27.666Z,99960.44
2022-12-25T21:36:32.792Z,99957.66
2022-12-25T21:40:38.779Z,99949.78
2022-12-25T21:44:43.412Z,99942.69
2022-12-25T21:48:47.063Z,99937.34
2022-12-25T21:52:49.008Z,99947.66
2022-12-25T21:56:53.225Z,99960.69
2022-12-25T22:00:57.524Z,99956.22
2022-12-25T22:05:00.469Z,99958.69
2022-12-25T22:09:05.939Z,99962.84
2022-12-25T22:13:27.728Z,99954.91
2022-12-25T22:17:51.064Z,99944.28
2022-12-25T22:21:54.291Z,99951.97
2022-12-25T22:25:57.312Z,99931.84
2022-12-25T22:30:00.449Z,99949.22
2022-12-25T22:34:04.740Z,99946.53
2022-12-25T22:38:08.136Z,99940.38
2022-12-25T22:42:12.297Z,99949.06
2022-12-25T22:46:15.307Z,99944.66
2022-12-25T22:50:20.250Z,99937.69
2022-12-25T22:54:24.289Z,99953.38
2022-12-25T22:58:27.260Z,99957.72
2022-12-25T23:02:30.580Z,99962.94
2022-12-25T23:06:35.709Z,99966.56
2022-12-25T23:10:38.959Z,99968.25
2022-12-25T23:14:42.008Z,99973.47
2022-12-25T23:19:02.693Z,99962.19
2022-12-25T23:23:24.995Z,99956.19
2022-12-25T23:27:28.461Z,99977.25
2022-12-25T23:31:34.487Z,99976.38
2022-12-25T23:35:37.501Z,99972.88
2022-12-25T23:39:42.410Z,99952.03
2022-12-25T23:43:45.296Z,99965.16
2022-12-25T23:47:48.452Z,99967.84
2022-12-25T23:51:51.609Z,99977.59
2022-12-25T23:55:57.592Z,99985.53
